sensor_id;sensor_type;location;lat;lon;timestamp;temperature;humidity
45619;DHT22;31343;47.520;19.144;2022-11-14T00:02:21;7.60;99.90
45619;DHT22;31343;47.520;19.144;2022-11-14T00:04:48;7.60;99.90
45619;DHT22;31343;47.520;19.144;2022-11-14T00:07:14;7.60;99.90
45619;DHT22;31343;47.520;19.144;2022-11-14T00:09:40;7.60;99.90
45619;DHT22;31343;47.520;19.144;2022-11-14T00:12:10;7.60;99.90
45619;DHT22;31343;47.520;19.144;2022-11-14T00:14:37;7.60;99.90
45619;DHT22;31343;47.520;19.144;2022-11-14T00:17:03;7.60;99.90
45619;DHT22;31343;47.520;19.144;2022-11-14T00:19:29;7.60;99.90
45619;DHT22;31343;47.520;19.144;2022-11-14T00:21:54;7.70;99.90
45619;DHT22;31343;47.520;19.144;2022-11-14T00:24:20;7.60;99.90
45619;DHT22;31343;47.520;19.144;2022-11-14T00:26:46;7.50;99.90
45619;DHT22;31343;47.520;19.144;2022-11-14T00:29:15;7.60;99.90
45619;DHT22;31343;47.520;19.144;2022-11-14T00:31:41;7.60;99.90
45619;DHT22;31343;47.520;19.144;2022-11-14T00:34:08;7.50;99.90
45619;DHT22;31343;47.520;19.144;2022-11-14T00:36:34;7.50;99.90
45619;DHT22;31343;47.520;19.144;2022-11-14T00:39:00;7.50;99.90
45619;DHT22;31343;47.520;19.144;2022-11-14T00:41:26;7.50;99.90
45619;DHT22;31343;47.520;19.144;2022-11-14T00:43:52;7.50;99.90
45619;DHT22;31343;47.520;19.144;2022-11-14T00:46:18;7.40;99.90
45619;DHT22;31343;47.520;19.144;2022-11-14T00:48:44;7.40;99.90
45619;DHT22;31343;47.520;19.144;2022-11-14T00:51:10;7.30;99.90
45619;DHT22;31343;47.520;19.144;2022-11-14T00:53:36;7.30;99.90
45619;DHT22;31343;47.520;19.144;2022-11-14T00:56:02;7.40;99.90
45619;DHT22;31343;47.520;19.144;2022-11-14T00:58:28;7.40;99.90
45619;DHT22;31343;47.520;19.144;2022-11-14T01:00:54;7.30;99.90
45619;DHT22;31343;47.520;19.144;2022-11-14T01:03:19;7.30;99.90
45619;DHT22;31343;47.520;19.144;2022-11-14T01:05:47;7.30;99.90
45619;DHT22;31343;47.520;19.144;2022-11-14T01:08:15;7.30;99.90
45619;DHT22;31343;47.520;19.144;2022-11-14T01:10:44;7.30;99.90
45619;DHT22;31343;47.520;19.144;2022-11-14T01:13:10;7.40;99.90
45619;DHT22;31343;47.520;19.144;2022-11-14T01:15:45;7.40;99.90
45619;DHT22;31343;47.520;19.144;2022-11-14T01:18:13;7.30;99.90
45619;DHT22;31343;47.520;19.144;2022-11-14T01:20:41;7.20;99.90
45619;DHT22;31343;47.520;19.144;2022-11-14T01:23:08;7.30;99.90
45619;DHT22;31343;47.520;19.144;2022-11-14T01:25:35;7.20;99.90
45619;DHT22;31343;47.520;19.144;2022-11-14T01:28:05;7.20;99.90
45619;DHT22;31343;47.520;19.144;2022-11-14T01:30:30;7.30;99.90
45619;DHT22;31343;47.520;19.144;2022-11-14T01:32:56;7.30;99.90
45619;DHT22;31343;47.520;19.144;2022-11-14T01:35:22;7.20;99.90
45619;DHT22;31343;47.520;19.144;2022-11-14T01:37:47;7.20;99.90
45619;DHT22;31343;47.520;19.144;2022-11-14T01:40:13;7.20;99.90
45619;DHT22;31343;47.520;19.144;2022-11-14T01:42:39;7.10;99.90
45619;DHT22;31343;47.520;19.144;2022-11-14T01:48:32;6.90;99.90
45619;DHT22;31343;47.520;19.144;2022-11-14T01:53:31;7.00;99.90
45619;DHT22;31343;47.520;19.144;2022-11-14T01:55:59;7.00;99.90
45619;DHT22;31343;47.520;19.144;2022-11-14T01:58:27;7.10;99.90
45619;DHT22;31343;47.520;19.144;2022-11-14T02:00:55;7.10;99.90
45619;DHT22;31343;47.520;19.144;2022-11-14T02:03:23;7.00;99.90
45619;DHT22;31343;47.520;19.144;2022-11-14T02:05:49;7.00;99.90
45619;DHT22;31343;47.520;19.144;2022-11-14T02:08:15;7.00;99.90
45619;DHT22;31343;47.520;19.144;2022-11-14T02:10:42;7.00;99.90
45619;DHT22;31343;47.520;19.144;2022-11-14T02:13:09;7.00;99.90
45619;DHT22;31343;47.520;19.144;2022-11-14T02:15:35;7.10;99.90
45619;DHT22;31343;47.520;19.144;2022-11-14T02:18:01;7.00;99.90
45619;DHT22;31343;47.520;19.144;2022-11-14T02:20:29;7.00;99.90
45619;DHT22;31343;47.520;19.144;2022-11-14T02:22:58;7.00;99.90
45619;DHT22;31343;47.520;19.144;2022-11-14T02:25:24;7.00;99.90
45619;DHT22;31343;47.520;19.144;2022-11-14T02:27:50;6.90;99.90
45619;DHT22;31343;47.520;19.144;2022-11-14T02:30:21;6.80;99.90
45619;DHT22;31343;47.520;19.144;2022-11-14T02:32:48;6.70;99.90
45619;DHT22;31343;47.520;19.144;2022-11-14T02:35:14;6.80;99.90
45619;DHT22;31343;47.520;19.144;2022-11-14T02:37:39;6.80;99.90
45619;DHT22;31343;47.520;19.144;2022-11-14T02:40:06;6.80;99.90
45619;DHT22;31343;47.520;19.144;2022-11-14T02:42:32;6.70;99.90
45619;DHT22;31343;47.520;19.144;2022-11-14T02:44:57;6.60;99.90
45619;DHT22;31343;47.520;19.144;2022-11-14T02:47:23;6.60;99.90
45619;DHT22;31343;47.520;19.144;2022-11-14T02:49:50;6.50;99.90
45619;DHT22;31343;47.520;19.144;2022-11-14T02:52:16;6.50;99.90
45619;DHT22;31343;47.520;19.144;2022-11-14T02:54:42;6.60;99.90
45619;DHT22;31343;47.520;19.144;2022-11-14T02:57:07;6.60;99.90
45619;DHT22;31343;47.520;19.144;2022-11-14T02:59:34;6.60;99.90
45619;DHT22;31343;47.520;19.144;2022-11-14T03:02:00;6.50;99.90
45619;DHT22;31343;47.520;19.144;2022-11-14T03:04:25;6.50;99.90
45619;DHT22;31343;47.520;19.144;2022-11-14T03:06:51;6.50;99.90
45619;DHT22;31343;47.520;19.144;2022-11-14T03:09:18;6.50;99.90
45619;DHT22;31343;47.520;19.144;2022-11-14T03:11:43;6.40;99.90
45619;DHT22;31343;47.520;19.144;2022-11-14T03:14:10;6.30;99.90
45619;DHT22;31343;47.520;19.144;2022-11-14T03:16:36;6.30;99.90
45619;DHT22;31343;47.520;19.144;2022-11-14T03:19:02;6.20;99.90
45619;DHT22;31343;47.520;19.144;2022-11-14T03:21:28;6.30;99.90
45619;DHT22;31343;47.520;19.144;2022-11-14T03:23:53;6.30;99.90
45619;DHT22;31343;47.520;19.144;2022-11-14T03:26:19;6.20;99.90
45619;DHT22;31343;47.520;19.144;2022-11-14T03:28:45;6.10;99.90
45619;DHT22;31343;47.520;19.144;2022-11-14T03:31:12;6.20;99.90
45619;DHT22;31343;47.520;19.144;2022-11-14T03:33:38;6.10;99.90
45619;DHT22;31343;47.520;19.144;2022-11-14T03:36:04;6.10;99.90
45619;DHT22;31343;47.520;19.144;2022-11-14T03:38:31;6.20;99.90
45619;DHT22;31343;47.520;19.144;2022-11-14T03:40:58;6.20;99.90
45619;DHT22;31343;47.520;19.144;2022-11-14T03:43:24;6.20;99.90
45619;DHT22;31343;47.520;19.144;2022-11-14T03:45:50;6.20;99.90
45619;DHT22;31343;47.520;19.144;2022-11-14T03:48:16;6.10;99.90
45619;DHT22;31343;47.520;19.144;2022-11-14T03:50:42;6.10;99.90
45619;DHT22;31343;47.520;19.144;2022-11-14T03:53:09;6.20;99.90
45619;DHT22;31343;47.520;19.144;2022-11-14T03:55:35;6.10;99.90
45619;DHT22;31343;47.520;19.144;2022-11-14T03:58:00;6.00;99.90
45619;DHT22;31343;47.520;19.144;2022-11-14T04:00:26;6.10;99.90
45619;DHT22;31343;47.520;19.144;2022-11-14T04:02:56;6.10;99.90
45619;DHT22;31343;47.520;19.144;2022-11-14T04:05:22;6.10;99.90
45619;DHT22;31343;47.520;19.144;2022-11-14T04:07:48;6.20;99.90
45619;DHT22;31343;47.520;19.144;2022-11-14T04:10:15;6.00;99.90
45619;DHT22;31343;47.520;19.144;2022-11-14T04:12:41;6.10;99.90
45619;DHT22;31343;47.520;19.144;2022-11-14T04:15:11;6.10;99.90
45619;DHT22;31343;47.520;19.144;2022-11-14T04:17:37;6.10;99.90
45619;DHT22;31343;47.520;19.144;2022-11-14T04:20:02;6.00;99.90
45619;DHT22;31343;47.520;19.144;2022-11-14T04:22:28;6.00;99.90
45619;DHT22;31343;47.520;19.144;2022-11-14T04:24:54;5.80;99.90
45619;DHT22;31343;47.520;19.144;2022-11-14T04:27:19;5.80;99.90
45619;DHT22;31343;47.520;19.144;2022-11-14T04:29:45;5.80;99.90
45619;DHT22;31343;47.520;19.144;2022-11-14T04:32:11;5.70;99.90
45619;DHT22;31343;47.520;19.144;2022-11-14T04:34:36;5.60;99.90
45619;DHT22;31343;47.520;19.144;2022-11-14T04:37:02;5.60;99.90
45619;DHT22;31343;47.520;19.144;2022-11-14T04:39:28;5.70;99.90
45619;DHT22;31343;47.520;19.144;2022-11-14T04:41:53;5.70;99.90
45619;DHT22;31343;47.520;19.144;2022-11-14T04:44:19;5.70;99.90
45619;DHT22;31343;47.520;19.144;2022-11-14T04:46:44;5.60;99.90
45619;DHT22;31343;47.520;19.144;2022-11-14T04:49:10;5.50;99.90
45619;DHT22;31343;47.520;19.144;2022-11-14T04:51:36;5.50;99.90
45619;DHT22;31343;47.520;19.144;2022-11-14T04:54:03;5.50;99.90
45619;DHT22;31343;47.520;19.144;2022-11-14T04:56:28;5.60;99.90
45619;DHT22;31343;47.520;19.144;2022-11-14T04:58:55;5.50;99.90
45619;DHT22;31343;47.520;19.144;2022-11-14T05:01:21;5.50;99.90
45619;DHT22;31343;47.520;19.144;2022-11-14T05:03:46;5.50;99.90
45619;DHT22;31343;47.520;19.144;2022-11-14T05:06:12;5.50;99.90
45619;DHT22;31343;47.520;19.144;2022-11-14T05:08:38;5.50;99.90
45619;DHT22;31343;47.520;19.144;2022-11-14T05:11:03;5.40;99.90
45619;DHT22;31343;47.520;19.144;2022-11-14T05:13:30;5.40;99.90
45619;DHT22;31343;47.520;19.144;2022-11-14T05:15:59;5.40;99.90
45619;DHT22;31343;47.520;19.144;2022-11-14T05:18:25;5.40;99.90
45619;DHT22;31343;47.520;19.144;2022-11-14T05:20:51;5.40;99.90
45619;DHT22;31343;47.520;19.144;2022-11-14T05:23:21;5.40;99.90
45619;DHT22;31343;47.520;19.144;2022-11-14T05:26:04;5.40;99.90
45619;DHT22;31343;47.520;19.144;2022-11-14T05:28:30;5.40;99.90
45619;DHT22;31343;47.520;19.144;2022-11-14T05:31:08;5.40;99.90
45619;DHT22;31343;47.520;19.144;2022-11-14T05:33:35;5.40;99.90
45619;DHT22;31343;47.520;19.144;2022-11-14T05:36:12;5.40;99.90
45619;DHT22;31343;47.520;19.144;2022-11-14T05:38:38;5.30;99.90
45619;DHT22;31343;47.520;19.144;2022-11-14T05:41:11;5.30;99.90
45619;DHT22;31343;47.520;19.144;2022-11-14T05:43:38;5.30;99.90
45619;DHT22;31343;47.520;19.144;2022-11-14T05:46:06;5.30;99.90
45619;DHT22;31343;47.520;19.144;2022-11-14T05:48:32;5.30;99.90
45619;DHT22;31343;47.520;19.144;2022-11-14T05:50:59;5.30;99.90
45619;DHT22;31343;47.520;19.144;2022-11-14T05:53:26;5.30;99.90
45619;DHT22;31343;47.520;19.144;2022-11-14T05:55:52;5.30;99.90
45619;DHT22;31343;47.520;19.144;2022-11-14T05:58:18;5.20;99.90
45619;DHT22;31343;47.520;19.144;2022-11-14T06:00:44;5.20;99.90
45619;DHT22;31343;47.520;19.144;2022-11-14T06:03:10;5.20;99.90
45619;DHT22;31343;47.520;19.144;2022-11-14T06:05:36;5.20;99.90
45619;DHT22;31343;47.520;19.144;2022-11-14T06:08:02;5.20;99.90
45619;DHT22;31343;47.520;19.144;2022-11-14T06:10:28;5.20;99.90
45619;DHT22;31343;47.520;19.144;2022-11-14T06:12:54;5.10;99.90
45619;DHT22;31343;47.520;19.144;2022-11-14T06:15:20;5.00;99.90
45619;DHT22;31343;47.520;19.144;2022-11-14T06:17:45;4.90;99.90
45619;DHT22;31343;47.520;19.144;2022-11-14T06:20:11;5.00;99.90
45619;DHT22;31343;47.520;19.144;2022-11-14T06:22:39;5.00;99.90
45619;DHT22;31343;47.520;19.144;2022-11-14T06:25:05;5.00;99.90
45619;DHT22;31343;47.520;19.144;2022-11-14T06:27:31;5.00;99.90
45619;DHT22;31343;47.520;19.144;2022-11-14T06:29:56;4.90;99.90
45619;DHT22;31343;47.520;19.144;2022-11-14T06:32:22;4.90;99.90
45619;DHT22;31343;47.520;19.144;2022-11-14T06:34:48;5.00;99.90
45619;DHT22;31343;47.520;19.144;2022-11-14T06:37:13;5.00;99.90
45619;DHT22;31343;47.520;19.144;2022-11-14T06:39:39;5.00;99.90
45619;DHT22;31343;47.520;19.144;2022-11-14T06:42:05;5.10;99.90
45619;DHT22;31343;47.520;19.144;2022-11-14T06:44:31;5.20;99.90
45619;DHT22;31343;47.520;19.144;2022-11-14T06:46:56;5.20;99.90
45619;DHT22;31343;47.520;19.144;2022-11-14T06:49:22;5.30;99.90
45619;DHT22;31343;47.520;19.144;2022-11-14T06:51:52;5.50;99.90
45619;DHT22;31343;47.520;19.144;2022-11-14T06:54:18;5.50;99.90
45619;DHT22;31343;47.520;19.144;2022-11-14T06:56:44;5.60;99.90
45619;DHT22;31343;47.520;19.144;2022-11-14T06:59:10;5.60;99.90
45619;DHT22;31343;47.520;19.144;2022-11-14T07:01:35;5.60;99.90
45619;DHT22;31343;47.520;19.144;2022-11-14T07:04:01;5.70;99.90
45619;DHT22;31343;47.520;19.144;2022-11-14T07:06:29;5.60;99.90
45619;DHT22;31343;47.520;19.144;2022-11-14T07:08:56;5.60;99.90
45619;DHT22;31343;47.520;19.144;2022-11-14T07:11:26;5.50;99.90
45619;DHT22;31343;47.520;19.144;2022-11-14T07:14:02;5.50;99.90
45619;DHT22;31343;47.520;19.144;2022-11-14T07:16:30;5.60;99.90
45619;DHT22;31343;47.520;19.144;2022-11-14T07:18:57;5.80;99.90
45619;DHT22;31343;47.520;19.144;2022-11-14T07:21:27;5.90;99.90
45619;DHT22;31343;47.520;19.144;2022-11-14T07:23:53;6.00;99.90
45619;DHT22;31343;47.520;19.144;2022-11-14T07:26:19;6.10;99.90
45619;DHT22;31343;47.520;19.144;2022-11-14T07:28:45;6.30;99.90
45619;DHT22;31343;47.520;19.144;2022-11-14T07:31:13;6.50;99.90
45619;DHT22;31343;47.520;19.144;2022-11-14T07:33:40;6.60;99.90
45619;DHT22;31343;47.520;19.144;2022-11-14T07:36:07;6.60;99.90
45619;DHT22;31343;47.520;19.144;2022-11-14T07:38:34;6.80;99.90
45619;DHT22;31343;47.520;19.144;2022-11-14T07:41:08;6.90;99.90
45619;DHT22;31343;47.520;19.144;2022-11-14T07:43:35;7.00;99.90
45619;DHT22;31343;47.520;19.144;2022-11-14T07:46:03;7.00;99.90
45619;DHT22;31343;47.520;19.144;2022-11-14T07:48:29;7.00;99.90
45619;DHT22;31343;47.520;19.144;2022-11-14T07:51:03;7.10;99.90
45619;DHT22;31343;47.520;19.144;2022-11-14T07:53:29;7.00;99.90
45619;DHT22;31343;47.520;19.144;2022-11-14T07:55:56;6.90;99.90
45619;DHT22;31343;47.520;19.144;2022-11-14T07:58:22;7.00;99.90
45619;DHT22;31343;47.520;19.144;2022-11-14T08:00:49;6.80;99.90
45619;DHT22;31343;47.520;19.144;2022-11-14T08:03:14;6.90;99.90
45619;DHT22;31343;47.520;19.144;2022-11-14T08:05:40;6.90;99.90
45619;DHT22;31343;47.520;19.144;2022-11-14T08:08:06;6.90;99.90
45619;DHT22;31343;47.520;19.144;2022-11-14T08:10:31;7.00;99.90
45619;DHT22;31343;47.520;19.144;2022-11-14T08:12:58;7.10;99.90
45619;DHT22;31343;47.520;19.144;2022-11-14T08:15:25;7.20;99.90
45619;DHT22;31343;47.520;19.144;2022-11-14T08:17:51;7.30;99.90
45619;DHT22;31343;47.520;19.144;2022-11-14T08:20:17;7.40;99.90
45619;DHT22;31343;47.520;19.144;2022-11-14T08:22:43;7.40;99.90
45619;DHT22;31343;47.520;19.144;2022-11-14T08:25:08;7.60;99.90
45619;DHT22;31343;47.520;19.144;2022-11-14T08:27:34;7.50;99.90
45619;DHT22;31343;47.520;19.144;2022-11-14T08:30:00;7.60;99.90
45619;DHT22;31343;47.520;19.144;2022-11-14T08:32:25;7.90;99.90
45619;DHT22;31343;47.520;19.144;2022-11-14T08:34:51;7.90;99.90
45619;DHT22;31343;47.520;19.144;2022-11-14T08:37:17;8.10;99.90
45619;DHT22;31343;47.520;19.144;2022-11-14T08:39:42;8.30;99.90
45619;DHT22;31343;47.520;19.144;2022-11-14T08:42:08;8.30;99.90
45619;DHT22;31343;47.520;19.144;2022-11-14T08:44:34;8.20;99.90
45619;DHT22;31343;47.520;19.144;2022-11-14T08:46:59;8.10;99.90
45619;DHT22;31343;47.520;19.144;2022-11-14T08:49:26;8.40;99.90
45619;DHT22;31343;47.520;19.144;2022-11-14T08:51:52;8.70;99.90
45619;DHT22;31343;47.520;19.144;2022-11-14T08:54:18;9.00;99.90
45619;DHT22;31343;47.520;19.144;2022-11-14T08:56:44;9.00;99.90
45619;DHT22;31343;47.520;19.144;2022-11-14T08:59:10;9.10;99.90
45619;DHT22;31343;47.520;19.144;2022-11-14T09:01:36;9.10;99.90
45619;DHT22;31343;47.520;19.144;2022-11-14T09:04:02;9.50;99.90
45619;DHT22;31343;47.520;19.144;2022-11-14T09:06:29;9.60;99.90
45619;DHT22;31343;47.520;19.144;2022-11-14T09:08:55;9.70;99.90
45619;DHT22;31343;47.520;19.144;2022-11-14T09:11:20;9.80;99.90
45619;DHT22;31343;47.520;19.144;2022-11-14T09:13:46;9.80;99.90
45619;DHT22;31343;47.520;19.144;2022-11-14T09:16:12;9.90;99.90
45619;DHT22;31343;47.520;19.144;2022-11-14T09:18:38;10.10;99.90
45619;DHT22;31343;47.520;19.144;2022-11-14T09:21:06;10.20;99.90
45619;DHT22;31343;47.520;19.144;2022-11-14T09:23:32;10.20;99.90
45619;DHT22;31343;47.520;19.144;2022-11-14T09:26:05;10.20;99.90
45619;DHT22;31343;47.520;19.144;2022-11-14T09:28:32;10.30;99.90
45619;DHT22;31343;47.520;19.144;2022-11-14T09:31:03;10.20;99.90
45619;DHT22;31343;47.520;19.144;2022-11-14T09:33:29;10.30;99.90
45619;DHT22;31343;47.520;19.144;2022-11-14T09:35:57;10.40;99.90
45619;DHT22;31343;47.520;19.144;2022-11-14T09:38:22;10.60;99.90
45619;DHT22;31343;47.520;19.144;2022-11-14T09:45:48;10.70;99.90
45619;DHT22;31343;47.520;19.144;2022-11-14T09:48:21;10.90;99.90
45619;DHT22;31343;47.520;19.144;2022-11-14T09:51:13;11.00;99.90
45619;DHT22;31343;47.520;19.144;2022-11-14T09:53:54;11.00;99.90
45619;DHT22;31343;47.520;19.144;2022-11-14T09:56:24;11.10;99.90
45619;DHT22;31343;47.520;19.144;2022-11-14T09:58:52;11.20;99.90
45619;DHT22;31343;47.520;19.144;2022-11-14T10:06:30;11.60;99.90
45619;DHT22;31343;47.520;19.144;2022-11-14T10:11:43;11.80;99.90
45619;DHT22;31343;47.520;19.144;2022-11-14T10:20:26;11.60;99.90
45619;DHT22;31343;47.520;19.144;2022-11-14T10:23:16;11.70;99.90
45619;DHT22;31343;47.520;19.144;2022-11-14T10:33:55;12.70;99.90
45619;DHT22;31343;47.520;19.144;2022-11-14T10:39:08;13.00;99.90
45619;DHT22;31343;47.520;19.144;2022-11-14T10:41:37;13.00;99.90
45619;DHT22;31343;47.520;19.144;2022-11-14T10:44:09;13.10;99.90
45619;DHT22;31343;47.520;19.144;2022-11-14T10:46:43;13.10;99.90
45619;DHT22;31343;47.520;19.144;2022-11-14T10:49:21;13.20;99.90
45619;DHT22;31343;47.520;19.144;2022-11-14T10:51:51;13.30;99.90
45619;DHT22;31343;47.520;19.144;2022-11-14T10:57:18;13.60;99.90
45619;DHT22;31343;47.520;19.144;2022-11-14T10:59:44;13.80;99.90
45619;DHT22;31343;47.520;19.144;2022-11-14T11:02:10;14.20;99.90
45619;DHT22;31343;47.520;19.144;2022-11-14T11:04:38;14.50;99.90
45619;DHT22;31343;47.520;19.144;2022-11-14T11:09:39;14.70;99.90
45619;DHT22;31343;47.520;19.144;2022-11-14T11:15:31;14.90;99.90
45619;DHT22;31343;47.520;19.144;2022-11-14T11:21:08;15.70;99.90
45619;DHT22;31343;47.520;19.144;2022-11-14T11:23:46;16.30;99.90
45619;DHT22;31343;47.520;19.144;2022-11-14T11:26:29;16.00;99.90
45619;DHT22;31343;47.520;19.144;2022-11-14T11:31:50;15.30;99.90
45619;DHT22;31343;47.520;19.144;2022-11-14T11:34:43;15.40;99.90
45619;DHT22;31343;47.520;19.144;2022-11-14T11:39:44;16.10;99.70
45619;DHT22;31343;47.520;19.144;2022-11-14T11:42:16;16.10;99.10
45619;DHT22;31343;47.520;19.144;2022-11-14T11:44:45;15.70;99.60
45619;DHT22;31343;47.520;19.144;2022-11-14T11:47:16;15.60;99.90
45619;DHT22;31343;47.520;19.144;2022-11-14T11:49:50;15.80;99.90
45619;DHT22;31343;47.520;19.144;2022-11-14T11:55:22;15.80;99.90
45619;DHT22;31343;47.520;19.144;2022-11-14T12:00:34;16.10;99.90
45619;DHT22;31343;47.520;19.144;2022-11-14T12:03:00;16.50;99.50
45619;DHT22;31343;47.520;19.144;2022-11-14T12:05:48;16.60;99.80
45619;DHT22;31343;47.520;19.144;2022-11-14T12:11:03;16.40;99.50
45619;DHT22;31343;47.520;19.144;2022-11-14T12:21:54;17.60;97.30
45619;DHT22;31343;47.520;19.144;2022-11-14T12:27:22;17.70;97.10
45619;DHT22;31343;47.520;19.144;2022-11-14T12:30:11;18.10;96.90
45619;DHT22;31343;47.520;19.144;2022-11-14T12:32:42;18.90;95.50
45619;DHT22;31343;47.520;19.144;2022-11-14T12:35:33;19.30;94.90
45619;DHT22;31343;47.520;19.144;2022-11-14T12:38:03;19.40;94.70
45619;DHT22;31343;47.520;19.144;2022-11-14T12:40:34;19.20;94.30
45619;DHT22;31343;47.520;19.144;2022-11-14T12:43:03;18.10;95.70
45619;DHT22;31343;47.520;19.144;2022-11-14T12:50:52;19.20;95.20
45619;DHT22;31343;47.520;19.144;2022-11-14T13:04:48;17.30;96.50
45619;DHT22;31343;47.520;19.144;2022-11-14T13:07:28;17.40;97.20
45619;DHT22;31343;47.520;19.144;2022-11-14T13:10:14;17.70;97.00
45619;DHT22;31343;47.520;19.144;2022-11-14T13:15:53;17.50;96.50
45619;DHT22;31343;47.520;19.144;2022-11-14T13:19:02;16.80;97.40
45619;DHT22;31343;47.520;19.144;2022-11-14T13:22:50;17.10;97.60
45619;DHT22;31343;47.520;19.144;2022-11-14T13:27:28;16.50;98.20
45619;DHT22;31343;47.520;19.144;2022-11-14T13:29:54;16.00;98.70
45619;DHT22;31343;47.520;19.144;2022-11-14T13:38:30;16.10;98.80
45619;DHT22;31343;47.520;19.144;2022-11-14T13:43:51;16.20;99.00
45619;DHT22;31343;47.520;19.144;2022-11-14T13:51:52;15.80;99.70
45619;DHT22;31343;47.520;19.144;2022-11-14T13:54:20;15.70;99.80
45619;DHT22;31343;47.520;19.144;2022-11-14T14:00:13;15.20;99.90
45619;DHT22;31343;47.520;19.144;2022-11-14T14:15:48;13.90;99.90
45619;DHT22;31343;47.520;19.144;2022-11-14T14:23:54;13.60;99.90
45619;DHT22;31343;47.520;19.144;2022-11-14T14:32:12;13.40;99.90
45619;DHT22;31343;47.520;19.144;2022-11-14T14:34:38;13.30;99.90
45619;DHT22;31343;47.520;19.144;2022-11-14T14:37:19;13.10;99.90
45619;DHT22;31343;47.520;19.144;2022-11-14T14:39:58;13.00;99.90
45619;DHT22;31343;47.520;19.144;2022-11-14T14:42:26;13.00;99.90
45619;DHT22;31343;47.520;19.144;2022-11-14T14:44:54;12.90;99.90
45619;DHT22;31343;47.520;19.144;2022-11-14T14:47:37;12.70;99.90
45619;DHT22;31343;47.520;19.144;2022-11-14T14:50:12;12.50;99.90
45619;DHT22;31343;47.520;19.144;2022-11-14T14:52:39;12.40;99.90
45619;DHT22;31343;47.520;19.144;2022-11-14T14:55:16;12.40;99.90
45619;DHT22;31343;47.520;19.144;2022-11-14T14:57:42;12.30;99.90
45619;DHT22;31343;47.520;19.144;2022-11-14T15:02:43;12.10;99.90
45619;DHT22;31343;47.520;19.144;2022-11-14T15:05:11;12.00;99.90
45619;DHT22;31343;47.520;19.144;2022-11-14T15:07:45;11.90;99.90
45619;DHT22;31343;47.520;19.144;2022-11-14T15:10:25;11.80;99.90
45619;DHT22;31343;47.520;19.144;2022-11-14T15:12:55;11.70;99.90
45619;DHT22;31343;47.520;19.144;2022-11-14T15:15:21;11.60;99.90
45619;DHT22;31343;47.520;19.144;2022-11-14T15:17:52;11.60;99.90
45619;DHT22;31343;47.520;19.144;2022-11-14T15:20:27;11.60;99.90
45619;DHT22;31343;47.520;19.144;2022-11-14T15:23:20;11.50;99.90
45619;DHT22;31343;47.520;19.144;2022-11-14T15:25:45;11.40;99.90
45619;DHT22;31343;47.520;19.144;2022-11-14T15:28:14;11.50;99.90
45619;DHT22;31343;47.520;19.144;2022-11-14T15:30:41;11.30;99.90
45619;DHT22;31343;47.520;19.144;2022-11-14T15:33:26;11.30;99.90
45619;DHT22;31343;47.520;19.144;2022-11-14T15:36:24;11.20;99.90
45619;DHT22;31343;47.520;19.144;2022-11-14T15:39:04;11.20;99.90
45619;DHT22;31343;47.520;19.144;2022-11-14T15:41:45;11.10;99.90
45619;DHT22;31343;47.520;19.144;2022-11-14T15:44:30;11.10;99.90
45619;DHT22;31343;47.520;19.144;2022-11-14T15:46:56;11.00;99.90
45619;DHT22;31343;47.520;19.144;2022-11-14T15:49:24;11.00;99.90
45619;DHT22;31343;47.520;19.144;2022-11-14T15:51:54;11.00;99.90
45619;DHT22;31343;47.520;19.144;2022-11-14T15:54:29;10.90;99.90
45619;DHT22;31343;47.520;19.144;2022-11-14T15:56:57;10.90;99.90
45619;DHT22;31343;47.520;19.144;2022-11-14T15:59:24;10.80;99.90
45619;DHT22;31343;47.520;19.144;2022-11-14T16:01:53;10.70;99.90
45619;DHT22;31343;47.520;19.144;2022-11-14T16:04:23;10.60;99.90
45619;DHT22;31343;47.520;19.144;2022-11-14T16:06:49;10.40;99.90
45619;DHT22;31343;47.520;19.144;2022-11-14T16:09:17;10.40;99.90
45619;DHT22;31343;47.520;19.144;2022-11-14T16:11:44;10.40;99.90
45619;DHT22;31343;47.520;19.144;2022-11-14T16:14:10;10.40;99.90
45619;DHT22;31343;47.520;19.144;2022-11-14T16:16:36;10.20;99.90
45619;DHT22;31343;47.520;19.144;2022-11-14T16:19:03;10.10;99.90
45619;DHT22;31343;47.520;19.144;2022-11-14T16:21:31;10.10;99.90
45619;DHT22;31343;47.520;19.144;2022-11-14T16:23:57;10.00;99.90
45619;DHT22;31343;47.520;19.144;2022-11-14T16:26:23;9.90;99.90
45619;DHT22;31343;47.520;19.144;2022-11-14T16:28:51;9.80;99.90
45619;DHT22;31343;47.520;19.144;2022-11-14T16:31:17;9.80;99.90
45619;DHT22;31343;47.520;19.144;2022-11-14T16:33:44;9.60;99.90
45619;DHT22;31343;47.520;19.144;2022-11-14T16:36:10;9.60;99.90
45619;DHT22;31343;47.520;19.144;2022-11-14T16:38:36;9.60;99.90
45619;DHT22;31343;47.520;19.144;2022-11-14T16:41:06;9.50;99.90
45619;DHT22;31343;47.520;19.144;2022-11-14T16:43:31;9.50;99.90
45619;DHT22;31343;47.520;19.144;2022-11-14T16:45:57;9.60;99.90
45619;DHT22;31343;47.520;19.144;2022-11-14T16:48:23;9.60;99.90
45619;DHT22;31343;47.520;19.144;2022-11-14T16:50:48;9.60;99.90
45619;DHT22;31343;47.520;19.144;2022-11-14T16:53:14;9.50;99.90
45619;DHT22;31343;47.520;19.144;2022-11-14T16:55:43;9.50;99.90
45619;DHT22;31343;47.520;19.144;2022-11-14T16:58:09;9.40;99.90
45619;DHT22;31343;47.520;19.144;2022-11-14T17:00:35;9.20;99.90
45619;DHT22;31343;47.520;19.144;2022-11-14T17:03:01;9.30;99.90
45619;DHT22;31343;47.520;19.144;2022-11-14T17:05:27;9.20;99.90
45619;DHT22;31343;47.520;19.144;2022-11-14T17:07:55;9.20;99.90
45619;DHT22;31343;47.520;19.144;2022-11-14T17:10:21;9.20;99.90
45619;DHT22;31343;47.520;19.144;2022-11-14T17:12:47;9.20;99.90
45619;DHT22;31343;47.520;19.144;2022-11-14T17:15:12;9.10;99.90
45619;DHT22;31343;47.520;19.144;2022-11-14T17:17:38;9.10;99.90
45619;DHT22;31343;47.520;19.144;2022-11-14T17:20:04;9.10;99.90
45619;DHT22;31343;47.520;19.144;2022-11-14T17:22:30;8.90;99.90
45619;DHT22;31343;47.520;19.144;2022-11-14T17:24:56;9.00;99.90
45619;DHT22;31343;47.520;19.144;2022-11-14T17:27:21;8.90;99.90
45619;DHT22;31343;47.520;19.144;2022-11-14T17:29:47;8.80;99.90
45619;DHT22;31343;47.520;19.144;2022-11-14T17:32:15;8.80;99.90
45619;DHT22;31343;47.520;19.144;2022-11-14T17:34:41;8.80;99.90
45619;DHT22;31343;47.520;19.144;2022-11-14T17:37:07;8.80;99.90
45619;DHT22;31343;47.520;19.144;2022-11-14T17:39:32;8.60;99.90
45619;DHT22;31343;47.520;19.144;2022-11-14T17:41:59;8.50;99.90
45619;DHT22;31343;47.520;19.144;2022-11-14T17:44:25;8.50;99.90
45619;DHT22;31343;47.520;19.144;2022-11-14T17:46:50;8.50;99.90
45619;DHT22;31343;47.520;19.144;2022-11-14T17:49:18;8.40;99.90
45619;DHT22;31343;47.520;19.144;2022-11-14T17:51:43;8.30;99.90
45619;DHT22;31343;47.520;19.144;2022-11-14T17:54:09;8.10;99.90
45619;DHT22;31343;47.520;19.144;2022-11-14T17:56:34;8.00;99.90